Forside
METAR-TAF:

METAR-TAF

Lufthavne :

Harry Clever Field

New Philadelphia, Ohio, USA

Breddekreds: 40-28-19N, længdekreds: 081-25-25W, højde: 272 m

Aktuelle vejr

Denne rapport blev lavet for 34 minutter siden, kl. 17:53 UTC
Vind 10 kt fra sydsydvest med vindstød på up til 17 kt
Temperatur 8°C
Fugtighed 29%
Tryk 1019 hPa
Sigt: 16.1 km
Brudte skyer i en højde af 7000 ft
Overskyet i en højde af 9500 ft

METAR: KPHD 231753Z AUTO 20010G17KT 10SM BKN070 OVC095 08/M09 A3010 RMK AO2 SLP202 T00831089 10083 21067 58024

Tid: 13:27 (18:27 UTC)


TAF: fraværende

Vejrobservationer og prognoser fra mere end 4000 lufthavne (METAR og TAF).

De gule og røde prikker repræsenterer de meteorologiske stationer.

Flyt musen over at se navnet på stationen.

Så klik over at se vejr observationer og prognoser.

At skifte det kort: Klik på de grønne knapper med et sort kors for at zoome ind; på den grønne knap med en bindestreg for at zoome ud; eller på de grønne pile for tilstødende kort.


METAR-TAF: